sensor_id;sensor_type;location;lat;lon;timestamp;P1;durP1;ratioP1;P2;durP2;ratioP2
35877;SDS011;21982;49.804;24.072;2022-10-15T00:01:56;27.88;;;14.60;;
35877;SDS011;21982;49.804;24.072;2022-10-15T00:04:22;29.40;;;15.70;;
35877;SDS011;21982;49.804;24.072;2022-10-15T00:06:48;24.95;;;15.73;;
35877;SDS011;21982;49.804;24.072;2022-10-15T00:09:13;29.08;;;16.33;;
35877;SDS011;21982;49.804;24.072;2022-10-15T00:11:39;33.13;;;16.92;;
35877;SDS011;21982;49.804;24.072;2022-10-15T00:14:04;34.45;;;16.45;;
35877;SDS011;21982;49.804;24.072;2022-10-15T00:16:29;28.58;;;15.57;;
35877;SDS011;21982;49.804;24.072;2022-10-15T00:18:57;33.47;;;15.80;;
35877;SDS011;21982;49.804;24.072;2022-10-15T00:21:27;29.77;;;15.45;;
35877;SDS011;21982;49.804;24.072;2022-10-15T00:23:53;28.63;;;16.77;;
35877;SDS011;21982;49.804;24.072;2022-10-15T00:26:20;31.63;;;16.67;;
35877;SDS011;21982;49.804;24.072;2022-10-15T00:28:53;25.55;;;15.18;;
35877;SDS011;21982;49.804;24.072;2022-10-15T00:31:20;26.75;;;15.77;;
35877;SDS011;21982;49.804;24.072;2022-10-15T00:33:48;29.30;;;15.50;;
35877;SDS011;21982;49.804;24.072;2022-10-15T00:36:19;30.05;;;15.57;;
35877;SDS011;21982;49.804;24.072;2022-10-15T00:38:47;34.08;;;16.83;;
35877;SDS011;21982;49.804;24.072;2022-10-15T00:41:18;29.83;;;15.27;;
35877;SDS011;21982;49.804;24.072;2022-10-15T00:46:23;34.42;;;17.23;;
35877;SDS011;21982;49.804;24.072;2022-10-15T00:48:58;33.35;;;17.90;;
35877;SDS011;21982;49.804;24.072;2022-10-15T00:51:32;29.75;;;15.90;;
35877;SDS011;21982;49.804;24.072;2022-10-15T00:54:02;30.00;;;17.38;;
35877;SDS011;21982;49.804;24.072;2022-10-15T00:56:28;40.13;;;17.48;;
35877;SDS011;21982;49.804;24.072;2022-10-15T00:58:57;33.17;;;17.05;;
35877;SDS011;21982;49.804;24.072;2022-10-15T01:01:26;33.22;;;16.88;;
35877;SDS011;21982;49.804;24.072;2022-10-15T01:03:52;35.13;;;16.77;;
35877;SDS011;21982;49.804;24.072;2022-10-15T01:06:19;31.20;;;15.75;;
35877;SDS011;21982;49.804;24.072;2022-10-15T01:08:45;32.10;;;17.10;;
35877;SDS011;21982;49.804;24.072;2022-10-15T01:16:55;31.08;;;15.73;;
35877;SDS011;21982;49.804;24.072;2022-10-15T01:27:45;29.80;;;17.05;;
35877;SDS011;21982;49.804;24.072;2022-10-15T01:30:20;35.38;;;19.17;;
35877;SDS011;21982;49.804;24.072;2022-10-15T01:35:57;39.28;;;19.10;;
35877;SDS011;21982;49.804;24.072;2022-10-15T01:38:45;56.35;;;21.02;;
35877;SDS011;21982;49.804;24.072;2022-10-15T01:41:21;149.38;;;30.35;;
35877;SDS011;21982;49.804;24.072;2022-10-15T01:44:26;92.70;;;25.40;;
35877;SDS011;21982;49.804;24.072;2022-10-15T01:47:04;125.55;;;27.65;;
35877;SDS011;21982;49.804;24.072;2022-10-15T01:49:33;120.05;;;28.60;;
35877;SDS011;21982;49.804;24.072;2022-10-15T01:52:05;248.38;;;42.20;;
35877;SDS011;21982;49.804;24.072;2022-10-15T01:54:37;295.42;;;48.47;;
35877;SDS011;21982;49.804;24.072;2022-10-15T01:57:04;379.98;;;62.10;;
35877;SDS011;21982;49.804;24.072;2022-10-15T01:59:33;384.75;;;60.17;;
35877;SDS011;21982;49.804;24.072;2022-10-15T02:02:00;205.93;;;38.50;;
35877;SDS011;21982;49.804;24.072;2022-10-15T02:04:26;374.67;;;62.92;;
35877;SDS011;21982;49.804;24.072;2022-10-15T02:15:44;419.17;;;58.28;;
35877;SDS011;21982;49.804;24.072;2022-10-15T02:18:23;480.95;;;69.88;;
35877;SDS011;21982;49.804;24.072;2022-10-15T02:21:26;430.20;;;66.10;;
35877;SDS011;21982;49.804;24.072;2022-10-15T02:24:16;397.77;;;56.45;;
35877;SDS011;21982;49.804;24.072;2022-10-15T02:26:46;367.90;;;54.33;;
35877;SDS011;21982;49.804;24.072;2022-10-15T02:29:15;493.95;;;72.13;;
35877;SDS011;21982;49.804;24.072;2022-10-15T02:31:43;455.38;;;69.82;;
35877;SDS011;21982;49.804;24.072;2022-10-15T02:34:12;444.75;;;57.53;;
35877;SDS011;21982;49.804;24.072;2022-10-15T02:36:42;463.40;;;68.75;;
35877;SDS011;21982;49.804;24.072;2022-10-15T02:39:12;534.45;;;80.60;;
35877;SDS011;21982;49.804;24.072;2022-10-15T02:41:42;447.98;;;62.22;;
35877;SDS011;21982;49.804;24.072;2022-10-15T02:44:08;578.38;;;93.22;;
35877;SDS011;21982;49.804;24.072;2022-10-15T02:46:33;448.70;;;63.42;;
35877;SDS011;21982;49.804;24.072;2022-10-15T02:48:59;372.77;;;50.58;;
35877;SDS011;21982;49.804;24.072;2022-10-15T02:51:29;523.78;;;66.25;;
35877;SDS011;21982;49.804;24.072;2022-10-15T02:54:07;447.42;;;57.63;;
35877;SDS011;21982;49.804;24.072;2022-10-15T02:56:45;398.88;;;49.28;;
35877;SDS011;21982;49.804;24.072;2022-10-15T02:59:19;434.80;;;57.50;;
35877;SDS011;21982;49.804;24.072;2022-10-15T03:01:56;423.05;;;51.60;;
35877;SDS011;21982;49.804;24.072;2022-10-15T03:04:22;495.10;;;66.97;;
35877;SDS011;21982;49.804;24.072;2022-10-15T03:06:47;456.88;;;59.30;;
35877;SDS011;21982;49.804;24.072;2022-10-15T03:09:13;467.38;;;61.42;;
35877;SDS011;21982;49.804;24.072;2022-10-15T03:11:39;418.35;;;53.35;;
35877;SDS011;21982;49.804;24.072;2022-10-15T03:14:04;540.08;;;81.50;;
35877;SDS011;21982;49.804;24.072;2022-10-15T03:16:30;437.65;;;54.03;;
35877;SDS011;21982;49.804;24.072;2022-10-15T03:18:55;535.35;;;71.63;;
35877;SDS011;21982;49.804;24.072;2022-10-15T03:21:21;450.25;;;55.13;;
35877;SDS011;21982;49.804;24.072;2022-10-15T03:23:49;449.05;;;55.28;;
35877;SDS011;21982;49.804;24.072;2022-10-15T03:26:15;437.48;;;60.20;;
35877;SDS011;21982;49.804;24.072;2022-10-15T03:28:40;421.35;;;49.80;;
35877;SDS011;21982;49.804;24.072;2022-10-15T03:31:06;405.55;;;55.55;;
35877;SDS011;21982;49.804;24.072;2022-10-15T03:33:34;461.58;;;53.42;;
35877;SDS011;21982;49.804;24.072;2022-10-15T03:36:03;530.67;;;66.88;;
35877;SDS011;21982;49.804;24.072;2022-10-15T03:38:28;478.92;;;55.22;;
35877;SDS011;21982;49.804;24.072;2022-10-15T03:40:54;389.30;;;44.83;;
35877;SDS011;21982;49.804;24.072;2022-10-15T03:43:22;465.33;;;53.83;;
35877;SDS011;21982;49.804;24.072;2022-10-15T03:45:49;469.15;;;66.13;;
35877;SDS011;21982;49.804;24.072;2022-10-15T03:48:14;530.33;;;75.82;;
35877;SDS011;21982;49.804;24.072;2022-10-15T03:50:40;406.80;;;54.10;;
35877;SDS011;21982;49.804;24.072;2022-10-15T03:53:05;302.33;;;40.67;;
35877;SDS011;21982;49.804;24.072;2022-10-15T03:55:31;310.98;;;43.78;;
35877;SDS011;21982;49.804;24.072;2022-10-15T03:57:57;362.75;;;50.58;;
35877;SDS011;21982;49.804;24.072;2022-10-15T04:00:22;267.08;;;42.58;;
35877;SDS011;21982;49.804;24.072;2022-10-15T04:02:48;329.77;;;50.92;;
35877;SDS011;21982;49.804;24.072;2022-10-15T04:05:13;284.83;;;39.78;;
35877;SDS011;21982;49.804;24.072;2022-10-15T04:07:39;292.45;;;42.95;;
35877;SDS011;21982;49.804;24.072;2022-10-15T04:10:04;297.15;;;38.95;;
35877;SDS011;21982;49.804;24.072;2022-10-15T04:12:30;193.93;;;29.00;;
35877;SDS011;21982;49.804;24.072;2022-10-15T04:14:56;250.95;;;39.92;;
35877;SDS011;21982;49.804;24.072;2022-10-15T04:17:21;234.90;;;38.47;;
35877;SDS011;21982;49.804;24.072;2022-10-15T04:19:47;153.95;;;27.30;;
35877;SDS011;21982;49.804;24.072;2022-10-15T04:22:12;247.60;;;40.08;;
35877;SDS011;21982;49.804;24.072;2022-10-15T04:24:38;269.00;;;40.03;;
35877;SDS011;21982;49.804;24.072;2022-10-15T04:27:03;194.10;;;36.25;;
35877;SDS011;21982;49.804;24.072;2022-10-15T04:29:29;207.63;;;38.50;;
35877;SDS011;21982;49.804;24.072;2022-10-15T04:31:54;159.50;;;31.80;;
35877;SDS011;21982;49.804;24.072;2022-10-15T04:34:20;306.55;;;45.42;;
35877;SDS011;21982;49.804;24.072;2022-10-15T04:36:45;189.15;;;33.67;;
35877;SDS011;21982;49.804;24.072;2022-10-15T04:39:11;344.70;;;55.20;;
35877;SDS011;21982;49.804;24.072;2022-10-15T04:41:39;361.50;;;55.85;;
35877;SDS011;21982;49.804;24.072;2022-10-15T04:44:05;348.13;;;47.35;;
35877;SDS011;21982;49.804;24.072;2022-10-15T04:46:30;419.02;;;64.93;;
35877;SDS011;21982;49.804;24.072;2022-10-15T04:48:56;369.05;;;50.22;;
35877;SDS011;21982;49.804;24.072;2022-10-15T04:51:23;408.05;;;58.03;;
35877;SDS011;21982;49.804;24.072;2022-10-15T04:53:50;387.92;;;55.03;;
35877;SDS011;21982;49.804;24.072;2022-10-15T04:56:16;369.38;;;48.33;;
35877;SDS011;21982;49.804;24.072;2022-10-15T04:58:44;323.25;;;42.20;;
35877;SDS011;21982;49.804;24.072;2022-10-15T05:01:12;300.92;;;38.67;;
35877;SDS011;21982;49.804;24.072;2022-10-15T05:03:40;377.13;;;51.30;;
35877;SDS011;21982;49.804;24.072;2022-10-15T05:06:08;398.33;;;57.67;;
35877;SDS011;21982;49.804;24.072;2022-10-15T05:08:38;340.25;;;47.92;;
35877;SDS011;21982;49.804;24.072;2022-10-15T05:11:10;367.83;;;52.35;;
35877;SDS011;21982;49.804;24.072;2022-10-15T05:13:48;316.42;;;37.90;;
35877;SDS011;21982;49.804;24.072;2022-10-15T05:16:19;380.73;;;50.15;;
35877;SDS011;21982;49.804;24.072;2022-10-15T05:18:47;445.13;;;70.35;;
35877;SDS011;21982;49.804;24.072;2022-10-15T05:21:14;382.67;;;47.17;;
35877;SDS011;21982;49.804;24.072;2022-10-15T05:23:40;364.40;;;41.72;;
35877;SDS011;21982;49.804;24.072;2022-10-15T05:26:06;332.30;;;46.67;;
35877;SDS011;21982;49.804;24.072;2022-10-15T05:28:34;261.85;;;36.15;;
35877;SDS011;21982;49.804;24.072;2022-10-15T05:31:04;277.90;;;37.63;;
35877;SDS011;21982;49.804;24.072;2022-10-15T05:33:34;348.77;;;50.10;;
35877;SDS011;21982;49.804;24.072;2022-10-15T05:38:52;244.48;;;32.95;;
35877;SDS011;21982;49.804;24.072;2022-10-15T05:41:19;195.90;;;30.98;;
35877;SDS011;21982;49.804;24.072;2022-10-15T05:43:45;283.10;;;42.13;;
35877;SDS011;21982;49.804;24.072;2022-10-15T05:46:12;252.85;;;39.83;;
35877;SDS011;21982;49.804;24.072;2022-10-15T05:48:37;199.48;;;34.20;;
35877;SDS011;21982;49.804;24.072;2022-10-15T05:51:04;270.75;;;38.70;;
35877;SDS011;21982;49.804;24.072;2022-10-15T05:53:30;181.18;;;32.88;;
35877;SDS011;21982;49.804;24.072;2022-10-15T05:55:56;73.10;;;20.02;;
35877;SDS011;21982;49.804;24.072;2022-10-15T05:58:25;51.25;;;17.63;;
35877;SDS011;21982;49.804;24.072;2022-10-15T06:00:54;89.03;;;19.92;;
35877;SDS011;21982;49.804;24.072;2022-10-15T06:03:20;25.10;;;13.65;;
35877;SDS011;21982;49.804;24.072;2022-10-15T06:05:46;38.85;;;14.77;;
35877;SDS011;21982;49.804;24.072;2022-10-15T06:08:12;36.15;;;15.18;;
35877;SDS011;21982;49.804;24.072;2022-10-15T06:10:38;59.50;;;16.15;;
35877;SDS011;21982;49.804;24.072;2022-10-15T06:13:04;27.25;;;13.23;;
35877;SDS011;21982;49.804;24.072;2022-10-15T06:15:30;46.28;;;15.13;;
35877;SDS011;21982;49.804;24.072;2022-10-15T06:17:56;31.17;;;14.27;;
35877;SDS011;21982;49.804;24.072;2022-10-15T06:20:21;26.75;;;13.25;;
35877;SDS011;21982;49.804;24.072;2022-10-15T06:22:47;25.40;;;14.25;;
35877;SDS011;21982;49.804;24.072;2022-10-15T06:25:14;20.88;;;11.07;;
35877;SDS011;21982;49.804;24.072;2022-10-15T06:27:39;25.98;;;12.52;;
35877;SDS011;21982;49.804;24.072;2022-10-15T06:30:05;22.70;;;11.30;;
35877;SDS011;21982;49.804;24.072;2022-10-15T06:32:32;36.67;;;14.57;;
35877;SDS011;21982;49.804;24.072;2022-10-15T06:34:58;24.42;;;12.50;;
35877;SDS011;21982;49.804;24.072;2022-10-15T06:37:23;20.02;;;11.30;;
35877;SDS011;21982;49.804;24.072;2022-10-15T06:39:49;21.25;;;12.45;;
35877;SDS011;21982;49.804;24.072;2022-10-15T06:42:14;20.48;;;12.77;;
35877;SDS011;21982;49.804;24.072;2022-10-15T06:44:40;20.45;;;12.07;;
35877;SDS011;21982;49.804;24.072;2022-10-15T06:47:15;16.67;;;11.15;;
35877;SDS011;21982;49.804;24.072;2022-10-15T06:49:40;19.75;;;12.05;;
35877;SDS011;21982;49.804;24.072;2022-10-15T06:52:07;19.67;;;12.07;;
35877;SDS011;21982;49.804;24.072;2022-10-15T06:54:36;22.20;;;11.25;;
35877;SDS011;21982;49.804;24.072;2022-10-15T06:57:02;21.05;;;10.18;;
35877;SDS011;21982;49.804;24.072;2022-10-15T06:59:30;18.30;;;10.23;;
35877;SDS011;21982;49.804;24.072;2022-10-15T07:01:59;20.88;;;10.63;;
35877;SDS011;21982;49.804;24.072;2022-10-15T07:04:35;19.42;;;10.32;;
35877;SDS011;21982;49.804;24.072;2022-10-15T07:07:01;17.73;;;9.73;;
35877;SDS011;21982;49.804;24.072;2022-10-15T07:09:29;14.77;;;9.55;;
35877;SDS011;21982;49.804;24.072;2022-10-15T07:11:56;21.02;;;9.85;;
35877;SDS011;21982;49.804;24.072;2022-10-15T07:14:22;15.10;;;10.05;;
35877;SDS011;21982;49.804;24.072;2022-10-15T07:16:48;17.73;;;9.98;;
35877;SDS011;21982;49.804;24.072;2022-10-15T07:19:15;18.73;;;10.40;;
35877;SDS011;21982;49.804;24.072;2022-10-15T07:21:41;19.88;;;10.15;;
35877;SDS011;21982;49.804;24.072;2022-10-15T07:24:07;20.38;;;9.85;;
35877;SDS011;21982;49.804;24.072;2022-10-15T07:26:33;16.27;;;9.10;;
35877;SDS011;21982;49.804;24.072;2022-10-15T07:29:01;17.52;;;10.45;;
35877;SDS011;21982;49.804;24.072;2022-10-15T07:31:30;19.15;;;10.60;;
35877;SDS011;21982;49.804;24.072;2022-10-15T07:33:56;20.17;;;10.95;;
35877;SDS011;21982;49.804;24.072;2022-10-15T07:36:21;18.10;;;9.60;;
35877;SDS011;21982;49.804;24.072;2022-10-15T07:38:47;18.92;;;10.80;;
35877;SDS011;21982;49.804;24.072;2022-10-15T07:41:13;18.15;;;9.75;;
35877;SDS011;21982;49.804;24.072;2022-10-15T07:43:39;18.00;;;9.85;;
35877;SDS011;21982;49.804;24.072;2022-10-15T07:46:06;20.40;;;10.43;;
35877;SDS011;21982;49.804;24.072;2022-10-15T07:48:32;17.17;;;9.23;;
35877;SDS011;21982;49.804;24.072;2022-10-15T07:51:02;19.00;;;8.60;;
35877;SDS011;21982;49.804;24.072;2022-10-15T07:53:31;18.60;;;9.82;;
35877;SDS011;21982;49.804;24.072;2022-10-15T07:55:59;14.85;;;8.07;;
35877;SDS011;21982;49.804;24.072;2022-10-15T07:58:27;13.23;;;8.23;;
35877;SDS011;21982;49.804;24.072;2022-10-15T08:00:54;13.77;;;8.25;;
35877;SDS011;21982;49.804;24.072;2022-10-15T08:03:23;18.33;;;9.27;;
35877;SDS011;21982;49.804;24.072;2022-10-15T08:05:49;16.75;;;8.20;;
35877;SDS011;21982;49.804;24.072;2022-10-15T08:08:17;14.95;;;8.07;;
35877;SDS011;21982;49.804;24.072;2022-10-15T08:10:43;18.40;;;7.53;;
35877;SDS011;21982;49.804;24.072;2022-10-15T08:13:09;14.45;;;8.80;;
35877;SDS011;21982;49.804;24.072;2022-10-15T08:15:37;14.35;;;8.20;;
35877;SDS011;21982;49.804;24.072;2022-10-15T08:18:06;16.75;;;8.75;;
35877;SDS011;21982;49.804;24.072;2022-10-15T08:20:34;15.27;;;8.85;;
35877;SDS011;21982;49.804;24.072;2022-10-15T08:23:01;15.48;;;8.70;;
35877;SDS011;21982;49.804;24.072;2022-10-15T08:25:27;15.35;;;8.40;;
35877;SDS011;21982;49.804;24.072;2022-10-15T08:27:52;14.10;;;7.45;;
35877;SDS011;21982;49.804;24.072;2022-10-15T08:30:18;16.33;;;8.00;;
35877;SDS011;21982;49.804;24.072;2022-10-15T08:32:44;16.50;;;6.72;;
35877;SDS011;21982;49.804;24.072;2022-10-15T08:35:09;15.00;;;7.32;;
35877;SDS011;21982;49.804;24.072;2022-10-15T08:37:35;14.63;;;7.93;;
35877;SDS011;21982;49.804;24.072;2022-10-15T08:40:00;16.15;;;8.70;;
35877;SDS011;21982;49.804;24.072;2022-10-15T08:42:41;20.05;;;7.68;;
35877;SDS011;21982;49.804;24.072;2022-10-15T08:45:11;15.02;;;7.60;;
35877;SDS011;21982;49.804;24.072;2022-10-15T08:47:47;13.88;;;7.60;;
35877;SDS011;21982;49.804;24.072;2022-10-15T08:53:20;13.43;;;7.60;;
35877;SDS011;21982;49.804;24.072;2022-10-15T08:55:49;15.27;;;8.07;;
35877;SDS011;21982;49.804;24.072;2022-10-15T09:01:33;16.63;;;9.50;;
35877;SDS011;21982;49.804;24.072;2022-10-15T09:07:06;20.40;;;9.93;;
35877;SDS011;21982;49.804;24.072;2022-10-15T09:09:49;20.20;;;10.55;;
35877;SDS011;21982;49.804;24.072;2022-10-15T09:12:29;16.95;;;10.35;;
35877;SDS011;21982;49.804;24.072;2022-10-15T09:15:17;15.95;;;8.77;;
35877;SDS011;21982;49.804;24.072;2022-10-15T09:17:46;18.63;;;10.20;;
35877;SDS011;21982;49.804;24.072;2022-10-15T09:20:18;20.35;;;10.15;;
35877;SDS011;21982;49.804;24.072;2022-10-15T09:22:49;25.25;;;11.65;;
35877;SDS011;21982;49.804;24.072;2022-10-15T09:25:19;20.90;;;11.30;;
35877;SDS011;21982;49.804;24.072;2022-10-15T09:27:47;19.42;;;9.70;;
35877;SDS011;21982;49.804;24.072;2022-10-15T09:33:38;19.42;;;11.25;;
35877;SDS011;21982;49.804;24.072;2022-10-15T09:36:41;23.67;;;12.18;;
35877;SDS011;21982;49.804;24.072;2022-10-15T09:39:14;38.83;;;19.25;;
35877;SDS011;21982;49.804;24.072;2022-10-15T09:44:49;24.05;;;14.07;;
35877;SDS011;21982;49.804;24.072;2022-10-15T09:47:22;37.72;;;18.65;;
35877;SDS011;21982;49.804;24.072;2022-10-15T09:49:52;25.65;;;15.18;;
35877;SDS011;21982;49.804;24.072;2022-10-15T09:57:32;20.83;;;11.82;;
35877;SDS011;21982;49.804;24.072;2022-10-15T10:00:02;15.77;;;9.45;;
35877;SDS011;21982;49.804;24.072;2022-10-15T10:02:31;19.00;;;9.43;;
35877;SDS011;21982;49.804;24.072;2022-10-15T10:04:57;16.40;;;9.13;;
35877;SDS011;21982;49.804;24.072;2022-10-15T10:07:43;17.48;;;10.07;;
35877;SDS011;21982;49.804;24.072;2022-10-15T10:10:29;13.98;;;8.15;;
35877;SDS011;21982;49.804;24.072;2022-10-15T10:12:55;21.23;;;9.38;;
35877;SDS011;21982;49.804;24.072;2022-10-15T10:17:57;15.93;;;8.80;;
35877;SDS011;21982;49.804;24.072;2022-10-15T10:20:23;11.10;;;7.38;;
35877;SDS011;21982;49.804;24.072;2022-10-15T10:22:57;22.20;;;11.45;;
35877;SDS011;21982;49.804;24.072;2022-10-15T10:33:25;17.17;;;8.85;;
35877;SDS011;21982;49.804;24.072;2022-10-15T10:35:55;15.82;;;8.77;;
35877;SDS011;21982;49.804;24.072;2022-10-15T10:41:00;12.75;;;6.82;;
35877;SDS011;21982;49.804;24.072;2022-10-15T10:43:37;11.18;;;6.50;;
35877;SDS011;21982;49.804;24.072;2022-10-15T10:46:25;13.98;;;6.32;;
35877;SDS011;21982;49.804;24.072;2022-10-15T10:48:50;12.05;;;7.28;;
35877;SDS011;21982;49.804;24.072;2022-10-15T10:51:22;15.70;;;5.93;;
35877;SDS011;21982;49.804;24.072;2022-10-15T10:56:27;10.38;;;4.82;;
35877;SDS011;21982;49.804;24.072;2022-10-15T10:59:02;16.98;;;7.32;;
35877;SDS011;21982;49.804;24.072;2022-10-15T11:01:55;11.45;;;5.88;;
35877;SDS011;21982;49.804;24.072;2022-10-15T11:07:02;12.75;;;5.78;;
35877;SDS011;21982;49.804;24.072;2022-10-15T11:15:22;11.50;;;6.10;;
35877;SDS011;21982;49.804;24.072;2022-10-15T11:34:59;8.55;;;5.57;;
35877;SDS011;21982;49.804;24.072;2022-10-15T11:40:19;8.95;;;4.85;;
35877;SDS011;21982;49.804;24.072;2022-10-15T11:43:02;8.20;;;4.75;;
35877;SDS011;21982;49.804;24.072;2022-10-15T11:51:11;9.00;;;4.78;;
35877;SDS011;21982;49.804;24.072;2022-10-15T11:53:52;11.20;;;4.90;;
35877;SDS011;21982;49.804;24.072;2022-10-15T11:56:36;9.02;;;4.50;;
35877;SDS011;21982;49.804;24.072;2022-10-15T12:04:49;10.43;;;5.70;;
35877;SDS011;21982;49.804;24.072;2022-10-15T12:07:26;8.40;;;4.85;;
35877;SDS011;21982;49.804;24.072;2022-10-15T12:10:04;10.45;;;5.25;;
35877;SDS011;21982;49.804;24.072;2022-10-15T12:12:56;14.13;;;6.45;;
35877;SDS011;21982;49.804;24.072;2022-10-15T12:20:49;12.75;;;6.65;;
35877;SDS011;21982;49.804;24.072;2022-10-15T12:23:38;15.13;;;8.13;;
35877;SDS011;21982;49.804;24.072;2022-10-15T12:28:49;13.80;;;6.65;;
35877;SDS011;21982;49.804;24.072;2022-10-15T12:31:17;16.02;;;8.25;;
35877;SDS011;21982;49.804;24.072;2022-10-15T12:39:02;14.32;;;6.80;;
35877;SDS011;21982;49.804;24.072;2022-10-15T12:41:36;11.97;;;6.70;;
35877;SDS011;21982;49.804;24.072;2022-10-15T12:44:06;12.75;;;6.60;;
35877;SDS011;21982;49.804;24.072;2022-10-15T12:46:39;14.18;;;7.82;;
35877;SDS011;21982;49.804;24.072;2022-10-15T12:51:54;13.55;;;6.63;;
35877;SDS011;21982;49.804;24.072;2022-10-15T12:59:56;12.98;;;7.18;;
35877;SDS011;21982;49.804;24.072;2022-10-15T13:02:36;15.98;;;7.78;;
35877;SDS011;21982;49.804;24.072;2022-10-15T13:05:05;22.42;;;11.73;;
35877;SDS011;21982;49.804;24.072;2022-10-15T13:07:33;18.90;;;8.85;;
35877;SDS011;21982;49.804;24.072;2022-10-15T13:10:03;35.97;;;19.08;;
35877;SDS011;21982;49.804;24.072;2022-10-15T13:12:29;31.20;;;18.30;;
35877;SDS011;21982;49.804;24.072;2022-10-15T13:14:59;25.33;;;16.52;;
35877;SDS011;21982;49.804;24.072;2022-10-15T13:17:31;25.75;;;13.38;;
35877;SDS011;21982;49.804;24.072;2022-10-15T13:20:00;22.80;;;12.35;;
35877;SDS011;21982;49.804;24.072;2022-10-15T13:22:30;21.20;;;10.77;;
35877;SDS011;21982;49.804;24.072;2022-10-15T13:24:58;21.35;;;11.00;;
35877;SDS011;21982;49.804;24.072;2022-10-15T13:27:30;26.77;;;13.32;;
35877;SDS011;21982;49.804;24.072;2022-10-15T13:29:58;17.73;;;9.77;;
35877;SDS011;21982;49.804;24.072;2022-10-15T13:32:26;18.13;;;10.70;;
35877;SDS011;21982;49.804;24.072;2022-10-15T13:34:55;22.77;;;9.90;;
35877;SDS011;21982;49.804;24.072;2022-10-15T13:37:23;24.30;;;13.02;;
35877;SDS011;21982;49.804;24.072;2022-10-15T13:39:55;27.17;;;13.98;;
35877;SDS011;21982;49.804;24.072;2022-10-15T13:42:21;21.23;;;11.10;;
35877;SDS011;21982;49.804;24.072;2022-10-15T13:44:55;23.08;;;12.45;;
35877;SDS011;21982;49.804;24.072;2022-10-15T13:50:11;25.08;;;11.38;;
35877;SDS011;21982;49.804;24.072;2022-10-15T13:55:23;20.77;;;11.50;;
35877;SDS011;21982;49.804;24.072;2022-10-15T13:58:01;23.85;;;13.55;;
35877;SDS011;21982;49.804;24.072;2022-10-15T14:00:41;25.38;;;13.88;;
35877;SDS011;21982;49.804;24.072;2022-10-15T14:03:16;27.70;;;13.68;;
35877;SDS011;21982;49.804;24.072;2022-10-15T14:05:48;25.00;;;13.32;;
35877;SDS011;21982;49.804;24.072;2022-10-15T14:08:20;18.60;;;10.05;;
35877;SDS011;21982;49.804;24.072;2022-10-15T14:10:56;19.08;;;10.38;;
35877;SDS011;21982;49.804;24.072;2022-10-15T14:13:23;20.00;;;10.77;;
35877;SDS011;21982;49.804;24.072;2022-10-15T14:18:16;18.05;;;9.98;;
35877;SDS011;21982;49.804;24.072;2022-10-15T14:20:51;18.38;;;9.27;;
35877;SDS011;21982;49.804;24.072;2022-10-15T14:23:21;16.60;;;8.20;;
35877;SDS011;21982;49.804;24.072;2022-10-15T14:25:58;17.92;;;8.65;;
35877;SDS011;21982;49.804;24.072;2022-10-15T14:28:27;20.05;;;9.75;;
35877;SDS011;21982;49.804;24.072;2022-10-15T14:30:54;19.55;;;8.98;;
35877;SDS011;21982;49.804;24.072;2022-10-15T14:33:40;19.15;;;9.95;;
35877;SDS011;21982;49.804;24.072;2022-10-15T14:41:29;21.50;;;8.65;;
35877;SDS011;21982;49.804;24.072;2022-10-15T14:44:06;20.05;;;8.30;;
35877;SDS011;21982;49.804;24.072;2022-10-15T14:46:43;23.52;;;9.52;;
35877;SDS011;21982;49.804;24.072;2022-10-15T14:49:24;28.15;;;10.77;;
35877;SDS011;21982;49.804;24.072;2022-10-15T14:52:03;25.92;;;10.55;;
35877;SDS011;21982;49.804;24.072;2022-10-15T14:54:34;26.13;;;11.75;;
35877;SDS011;21982;49.804;24.072;2022-10-15T14:57:19;24.35;;;9.38;;
35877;SDS011;21982;49.804;24.072;2022-10-15T14:59:51;24.63;;;10.65;;
35877;SDS011;21982;49.804;24.072;2022-10-15T15:02:19;29.88;;;9.52;;
35877;SDS011;21982;49.804;24.072;2022-10-15T15:04:52;28.15;;;9.60;;
35877;SDS011;21982;49.804;24.072;2022-10-15T15:07:38;27.00;;;8.48;;
35877;SDS011;21982;49.804;24.072;2022-10-15T15:10:14;32.35;;;9.95;;
35877;SDS011;21982;49.804;24.072;2022-10-15T15:12:47;27.13;;;11.85;;
35877;SDS011;21982;49.804;24.072;2022-10-15T15:15:16;24.30;;;9.57;;
35877;SDS011;21982;49.804;24.072;2022-10-15T15:17:45;26.27;;;10.02;;
35877;SDS011;21982;49.804;24.072;2022-10-15T15:20:13;23.70;;;8.80;;
35877;SDS011;21982;49.804;24.072;2022-10-15T15:22:40;33.60;;;10.63;;
35877;SDS011;21982;49.804;24.072;2022-10-15T15:25:12;31.35;;;9.98;;
35877;SDS011;21982;49.804;24.072;2022-10-15T15:28:00;38.78;;;12.07;;
35877;SDS011;21982;49.804;24.072;2022-10-15T15:30:30;49.78;;;23.50;;
35877;SDS011;21982;49.804;24.072;2022-10-15T15:32:59;53.13;;;23.55;;
35877;SDS011;21982;49.804;24.072;2022-10-15T15:38:14;40.25;;;12.90;;
35877;SDS011;21982;49.804;24.072;2022-10-15T15:41:18;32.05;;;14.13;;
35877;SDS011;21982;49.804;24.072;2022-10-15T15:43:46;26.63;;;11.07;;
35877;SDS011;21982;49.804;24.072;2022-10-15T15:46:24;35.85;;;14.20;;
35877;SDS011;21982;49.804;24.072;2022-10-15T15:48:53;33.50;;;16.02;;
35877;SDS011;21982;49.804;24.072;2022-10-15T15:51:26;30.52;;;13.55;;
35877;SDS011;21982;49.804;24.072;2022-10-15T15:56:22;27.55;;;11.68;;
35877;SDS011;21982;49.804;24.072;2022-10-15T15:58:49;25.33;;;9.98;;
35877;SDS011;21982;49.804;24.072;2022-10-15T16:01:15;22.33;;;9.65;;
35877;SDS011;21982;49.804;24.072;2022-10-15T16:03:48;33.08;;;10.20;;
35877;SDS011;21982;49.804;24.072;2022-10-15T16:06:13;28.67;;;13.40;;
35877;SDS011;21982;49.804;24.072;2022-10-15T16:08:38;37.20;;;16.02;;
35877;SDS011;21982;49.804;24.072;2022-10-15T16:11:07;32.55;;;15.68;;
35877;SDS011;21982;49.804;24.072;2022-10-15T16:13:32;39.92;;;20.02;;
35877;SDS011;21982;49.804;24.072;2022-10-15T16:15:58;51.92;;;23.77;;
35877;SDS011;21982;49.804;24.072;2022-10-15T16:18:25;45.03;;;19.52;;
35877;SDS011;21982;49.804;24.072;2022-10-15T16:20:50;36.75;;;17.27;;
35877;SDS011;21982;49.804;24.072;2022-10-15T16:23:16;54.47;;;28.35;;
35877;SDS011;21982;49.804;24.072;2022-10-15T16:25:42;65.63;;;31.05;;
35877;SDS011;21982;49.804;24.072;2022-10-15T16:28:09;67.68;;;41.90;;
35877;SDS011;21982;49.804;24.072;2022-10-15T16:30:34;79.82;;;40.05;;
35877;SDS011;21982;49.804;24.072;2022-10-15T16:32:59;43.40;;;25.20;;
35877;SDS011;21982;49.804;24.072;2022-10-15T16:35:25;47.45;;;26.13;;
35877;SDS011;21982;49.804;24.072;2022-10-15T16:37:50;38.28;;;19.90;;
35877;SDS011;21982;49.804;24.072;2022-10-15T16:40:20;40.17;;;19.55;;
35877;SDS011;21982;49.804;24.072;2022-10-15T16:42:45;40.17;;;18.80;;
35877;SDS011;21982;49.804;24.072;2022-10-15T16:45:11;35.83;;;17.90;;
35877;SDS011;21982;49.804;24.072;2022-10-15T16:47:37;31.25;;;17.42;;
35877;SDS011;21982;49.804;24.072;2022-10-15T16:50:02;41.33;;;22.73;;
35877;SDS011;21982;49.804;24.072;2022-10-15T16:52:28;51.63;;;25.63;;